Nearby METAR Reports

 

KLOT - Romeoville/Chi, Illinois, USA
Distance from station: N 3mi, 5km
Updated: Sat, 26-Sep-2020 9:55am CDT
Overcast
Overcast
 Wind from SSW
Wind: SSW 15 mph , 24 km/h, Gust: 20 mph , 31 km/h
Temperature: 66°F , 19°C
Dew Point: 63°F , 17°C
Humidity: 88%
Barometer: 29.87 inHg , 1011.5 hPa
Clouds: Overcast
Visibility: 7 miles , 11 km
Cloud details: Overcast 900 ft
2020/09/26 14:55 KLOT 261455Z AUTO 20013G17KT 7SM OVC009 19/17 A2987 RMK AO2 T01850169
KJOT - Joliet, Illinois, USA
Distance from station: WSW 5mi, 7km
Updated: Sat, 26-Sep-2020 9:55am CDT
Overcast
Overcast
 Wind from SSW
Wind: SSW 9 mph , 15 km/h, Gust: 16 mph , 26 km/h
Temperature: 66°F , 19°C
Dew Point: 63°F , 17°C
Humidity: 88%
Barometer: 29.87 inHg , 1011.5 hPa
Clouds: Overcast
Visibility: 7 miles , 11 km
Cloud details: Overcast 800 ft
2020/09/26 14:55 KJOT 261455Z AUTO 21008G14KT 7SM OVC008 19/17 A2987 RMK AO2 T01920172
 
KC09 - Morris-Washburn, Illinois, USA
Distance from station: WSW 18mi, 29km
Updated: Sat, 26-Sep-2020 9:55am CDT
Overcast
Overcast
 Wind from SSW
Wind: SSW 14 mph , 22 km/h, Gust: 18 mph , 30 km/h
Temperature: 66°F , 19°C
Dew Point: 64°F , 18°C
Humidity: 94%
Barometer: 29.86 inHg , 1011.2 hPa
Clouds: Overcast
Visibility: 7 miles , 11 km
Cloud details: Overcast 900 ft
2020/09/26 14:55 KC09 261455Z AUTO 21012G16KT 7SM OVC009 19/18 A2986 RMK AO2 T01880175
KARR - Chicago/Aurora, Illinois, USA
Distance from station: NW 24mi, 39km
Updated: Sat, 26-Sep-2020 9:52am CDT
Mist, Overcast
Mist, Overcast
 Wind from S
Wind: S 12 mph , 19 km/h
Temperature: 64°F , 18°C
Dew Point: 63°F , 17°C
Humidity: 94%
Barometer: 29.85 inHg , 1010.8 hPa
Summary: Mist
Clouds: Overcast
Visibility: 6 miles , 10 km
Cloud details: Overcast 800 ft
2020/09/26 14:52 KARR 261452Z 19010KT 6SM BR OVC008 18/17 A2985 RMK AO2 SLP107 T01830167 51006
 
KMDW - Chicago, Illinois, USA
Distance from station: NE 25mi, 39km
Updated: Sat, 26-Sep-2020 9:53am CDT
Overcast
Overcast
 Wind from SSW
Wind: SSW 15 mph , 24 km/h, Gust: 24 mph , 39 km/h
Temperature: 64°F , 18°C
Dew Point: 61°F , 16°C
Humidity: 88%
Barometer: 29.86 inHg , 1011.2 hPa
Clouds: Overcast
Visibility: 8 miles , 13 km
Cloud details: Overcast 900 ft
2020/09/26 14:53 KMDW 261453Z 21013G21KT 8SM OVC009 18/16 A2986 RMK AO2 SLP103 T01830156 50004
KDPA - Chicago/Dupage, Illinois, USA
Distance from station: NNW 26mi, 42km
Updated: Sat, 26-Sep-2020 9:52am CDT
Mist, Overcast
Mist, Overcast
 Wind from SSW
Wind: SSW 13 mph , 20 km/h, Gust: 23 mph , 37 km/h
Temperature: 64°F , 18°C
Dew Point: 61°F , 16°C
Humidity: 88%
Barometer: 29.85 inHg , 1010.8 hPa
Summary: Mist
Clouds: Overcast
Visibility: 6 miles , 10 km
Cloud details: Overcast 700 ft
2020/09/26 14:52 KDPA 261452Z 20011G20KT 6SM BR OVC007 18/16 A2985 RMK AO2 SLP104 T01780156 51005
 
KIGQ - Chicago/Lansing, Illinois, USA
Distance from station: E 30mi, 48km
Updated: Sat, 26-Sep-2020 9:55am CDT
Mist, Overcast
Mist, Overcast
 Wind from SW
Wind: SW 14 mph , 22 km/h, Gust: 20 mph , 31 km/h
Temperature: 63°F , 17°C
Dew Point: 61°F , 16°C
Humidity: 94%
Barometer: 29.89 inHg , 1012.2 hPa
Summary: Mist
Clouds: Overcast
Visibility: 5 miles , 8 km
Cloud details: Overcast 500 ft
2020/09/26 14:55 KIGQ 261455Z AUTO 23012G17KT 210V350 5SM BR OVC005 17/16 A2989 RMK AO2 T01670164
KORD - Chicago O'hare, Illinois, USA
Distance from station: NNE 31mi, 50km
Updated: Sat, 26-Sep-2020 9:51am CDT
Overcast
Overcast
 Wind from SSW
Wind: SSW 12 mph , 19 km/h
Temperature: 66°F , 19°C
Dew Point: 61°F , 16°C
Humidity: 83%
Barometer: 29.84 inHg , 1010.5 hPa
Clouds: Overcast
Visibility: 10 miles , 16 km
Cloud details: Overcast 1000 ft
2020/09/26 14:51 KORD 261451Z 20010KT 10SM OVC010 19/16 A2984 RMK AO2 SLP102 T01940156 51002
 
KGYY - Gary Regional, Indiana, USA
Distance from station: E 36mi, 58km
Updated: Sat, 26-Sep-2020 9:45am CDT
Overcast
Overcast
 Wind from SSW
Wind: SSW 9 mph , 15 km/h
Temperature: 63°F , 17°C
Dew Point: 61°F , 16°C
Humidity: 94%
Barometer: 29.89 inHg , 1012.2 hPa
Clouds: Overcast
Visibility: 7 miles , 11 km
Cloud details: Overcast 800 ft
2020/09/26 14:45 KGYY 261445Z 20008KT 7SM OVC008 17/16 A2989
KIKK - Kankakee, Illinois, USA
Distance from station: SSE 36mi, 58km
Updated: Sat, 26-Sep-2020 9:56am CDT
Overcast
Overcast
 Wind from SSW
Wind: SSW 15 mph , 24 km/h, Gust: 18 mph , 30 km/h
Temperature: 63°F , 17°C
Dew Point: 61°F , 16°C
Humidity: 94%
Barometer: 29.91 inHg , 1012.9 hPa
Clouds: Overcast
Visibility: 10 miles , 16 km
Cloud details: Overcast 600 ft
2020/09/26 14:56 KIKK 261456Z AUTO 21013G16KT 10SM OVC006 17/16 A2991 RMK AO2
 
KDKB - De Kalb, Illinois, USA
Distance from station: NW 40mi, 65km
Updated: Sat, 26-Sep-2020 9:55am CDT
Overcast
Overcast
 Wind from S
Wind: S 17 mph , 28 km/h
Temperature: 64°F , 18°C
Dew Point: 63°F , 17°C
Humidity: 94%
Barometer: 29.85 inHg , 1010.8 hPa
Clouds: Overcast
Visibility: 7 miles , 11 km
Cloud details: Overcast 600 ft
2020/09/26 14:55 KDKB 261455Z AUTO 19015KT 7SM OVC006 18/17 A2985 RMK AO2 T01800173
KPWK - Palwaukee, Illinois, USA
Distance from station: NNE 41mi, 65km
Updated: Sat, 26-Sep-2020 9:52am CDT
Overcast
Overcast
 Wind from SW
Wind: SW 13 mph , 20 km/h, Gust: 18 mph , 30 km/h
Temperature: 68°F , 20°C
Dew Point: 63°F , 17°C
Humidity: 83%
Barometer: 29.86 inHg , 1011.2 hPa
Clouds: Overcast
Visibility: 10 miles , 16 km
Cloud details: Overcast 1200 ft
2020/09/26 14:52 KPWK 261452Z 22011G16KT 10SM OVC012 20/17 A2986 RMK AO2 SLP107 T02000167 53000